createdAt,value
2017-01-22T00:00:02.097Z,0
2017-01-22T00:01:02.125Z,0
2017-01-22T00:02:02.102Z,0
2017-01-22T00:03:02.111Z,0
2017-01-22T00:04:02.135Z,0
2017-01-22T00:05:02.132Z,0
2017-01-22T00:06:02.081Z,0
2017-01-22T00:07:02.096Z,0
2017-01-22T00:08:02.108Z,0
2017-01-22T00:09:02.108Z,0
2017-01-22T00:10:02.112Z,0
2017-01-22T00:11:02.077Z,0
2017-01-22T00:12:02.093Z,0
2017-01-22T00:13:02.102Z,0
2017-01-22T00:14:02.106Z,0
2017-01-22T00:15:02.117Z,0
2017-01-22T00:16:02.096Z,0
2017-01-22T00:17:02.118Z,0
2017-01-22T00:18:02.169Z,0
2017-01-22T00:19:02.104Z,0
2017-01-22T00:20:02.118Z,0
2017-01-22T00:21:02.159Z,0
2017-01-22T00:22:02.118Z,0
2017-01-22T00:23:02.111Z,0
2017-01-22T00:24:02.126Z,0
2017-01-22T00:25:02.112Z,0
2017-01-22T00:26:02.108Z,0
2017-01-22T00:27:02.109Z,0
2017-01-22T00:28:02.111Z,0
2017-01-22T00:29:02.151Z,0
2017-01-22T00:30:02.128Z,0
2017-01-22T00:31:02.119Z,0
2017-01-22T00:32:02.163Z,0
2017-01-22T00:33:02.123Z,0
2017-01-22T00:34:02.124Z,0
2017-01-22T00:35:02.120Z,0
2017-01-22T00:36:02.099Z,0
2017-01-22T00:37:02.106Z,0
2017-01-22T00:38:02.101Z,0
2017-01-22T00:39:02.136Z,0
2017-01-22T00:40:02.116Z,0
2017-01-22T00:41:02.119Z,0
2017-01-22T00:42:02.138Z,0
2017-01-22T00:43:02.130Z,0
2017-01-22T00:44:02.162Z,0
2017-01-22T00:45:02.103Z,0
2017-01-22T00:46:02.171Z,0
2017-01-22T00:47:02.128Z,0
2017-01-22T00:48:02.115Z,0
2017-01-22T00:49:02.117Z,0
2017-01-22T00:50:02.108Z,0
2017-01-22T00:51:02.146Z,0
2017-01-22T00:52:02.143Z,0
2017-01-22T00:53:02.150Z,0
2017-01-22T00:54:02.121Z,0
2017-01-22T00:55:02.131Z,0
2017-01-22T00:56:02.138Z,0
2017-01-22T00:57:02.141Z,0
2017-01-22T00:58:02.113Z,0
2017-01-22T00:59:02.144Z,0
2017-01-22T01:00:02.138Z,0
2017-01-22T01:01:02.113Z,0
2017-01-22T01:02:02.139Z,0
2017-01-22T01:03:02.187Z,0
2017-01-22T01:04:02.111Z,0
2017-01-22T01:05:02.133Z,0
2017-01-22T01:06:02.122Z,0
2017-01-22T01:07:02.108Z,0
2017-01-22T01:08:02.146Z,0
2017-01-22T01:09:02.116Z,0
2017-01-22T01:10:02.145Z,0
2017-01-22T01:11:02.149Z,0
2017-01-22T01:12:02.129Z,0
2017-01-22T01:13:02.134Z,0
2017-01-22T01:14:02.159Z,0
2017-01-22T01:15:02.157Z,0
2017-01-22T01:16:02.125Z,0
2017-01-22T01:17:02.151Z,0
2017-01-22T01:18:02.153Z,0
2017-01-22T01:19:02.140Z,0
2017-01-22T01:20:02.144Z,0
2017-01-22T01:21:02.124Z,0
2017-01-22T01:22:02.136Z,0
2017-01-22T01:23:02.153Z,0
2017-01-22T01:24:02.143Z,0
2017-01-22T01:25:02.147Z,0
2017-01-22T01:26:02.143Z,0
2017-01-22T01:27:02.149Z,0
2017-01-22T01:28:02.158Z,0
2017-01-22T01:29:02.145Z,0
2017-01-22T01:30:02.148Z,0
2017-01-22T01:31:02.177Z,0
2017-01-22T01:32:02.154Z,0
2017-01-22T01:33:02.121Z,0
2017-01-22T01:34:02.139Z,0
2017-01-22T01:35:02.138Z,0
2017-01-22T01:36:02.147Z,0
2017-01-22T01:37:02.144Z,0
2017-01-22T01:38:02.145Z,0
2017-01-22T01:39:02.154Z,0
2017-01-22T01:40:02.161Z,0
2017-01-22T01:41:02.146Z,0
2017-01-22T01:42:02.156Z,0
2017-01-22T01:43:02.157Z,0
2017-01-22T01:44:02.161Z,0
2017-01-22T01:45:02.137Z,0
2017-01-22T01:46:02.148Z,0
2017-01-22T01:47:02.148Z,0
2017-01-22T01:48:02.151Z,0
2017-01-22T01:49:02.155Z,0
2017-01-22T01:50:02.161Z,0
2017-01-22T01:51:02.157Z,0
2017-01-22T01:52:02.158Z,0
2017-01-22T01:53:02.148Z,0
2017-01-22T01:54:02.160Z,0
2017-01-22T01:55:02.179Z,0
2017-01-22T01:56:02.187Z,0
2017-01-22T01:57:02.178Z,0
2017-01-22T01:58:02.148Z,0
2017-01-22T01:59:02.155Z,0
2017-01-22T02:00:02.171Z,0
2017-01-22T02:01:02.176Z,0
2017-01-22T02:02:02.146Z,0
2017-01-22T02:03:02.202Z,0
2017-01-22T02:04:02.172Z,0
2017-01-22T02:05:02.153Z,0
2017-01-22T02:06:02.172Z,0
2017-01-22T02:07:02.167Z,0
2017-01-22T02:08:02.171Z,0
2017-01-22T02:09:02.167Z,0
2017-01-22T02:10:02.171Z,0
2017-01-22T02:11:02.186Z,0
2017-01-22T02:12:02.165Z,0
2017-01-22T02:13:02.207Z,0
2017-01-22T02:14:02.199Z,0
2017-01-22T02:15:02.158Z,0
2017-01-22T02:16:02.170Z,0
2017-01-22T02:17:02.179Z,0
2017-01-22T02:18:02.159Z,0
2017-01-22T02:19:02.163Z,0
2017-01-22T02:20:02.173Z,0
2017-01-22T02:21:02.146Z,0
2017-01-22T02:22:02.174Z,0
2017-01-22T02:23:02.155Z,0
2017-01-22T02:24:02.159Z,0
2017-01-22T02:25:02.174Z,0
2017-01-22T02:26:02.187Z,0
2017-01-22T02:27:02.165Z,0
2017-01-22T02:28:02.177Z,0
2017-01-22T02:29:02.210Z,0
2017-01-22T02:30:02.180Z,0
2017-01-22T02:31:02.157Z,0
2017-01-22T02:32:02.167Z,0
2017-01-22T02:33:02.192Z,0
2017-01-22T02:34:02.168Z,0
2017-01-22T02:35:02.187Z,0
2017-01-22T02:36:02.202Z,0
2017-01-22T02:37:02.167Z,0
2017-01-22T02:38:02.180Z,0
2017-01-22T02:39:02.174Z,0
2017-01-22T02:40:02.168Z,0
2017-01-22T02:41:02.196Z,0
2017-01-22T02:42:02.185Z,0
2017-01-22T02:43:02.183Z,0
2017-01-22T02:44:02.205Z,0
2017-01-22T02:45:02.186Z,0
2017-01-22T02:46:02.196Z,0
2017-01-22T02:47:02.190Z,0
2017-01-22T02:48:02.222Z,0
2017-01-22T02:49:02.206Z,0
2017-01-22T02:50:02.197Z,0
2017-01-22T02:51:02.185Z,0
2017-01-22T02:52:02.209Z,0
2017-01-22T02:53:02.177Z,0
2017-01-22T02:54:02.200Z,0
2017-01-22T02:55:02.187Z,0
2017-01-22T02:56:02.189Z,0
2017-01-22T02:57:02.174Z,0
2017-01-22T02:58:02.183Z,0
2017-01-22T02:59:02.198Z,0
2017-01-22T03:00:02.240Z,0
2017-01-22T03:01:02.221Z,0
2017-01-22T03:02:02.191Z,0
2017-01-22T03:03:02.190Z,0
2017-01-22T03:04:02.201Z,0
2017-01-22T03:05:02.246Z,0
2017-01-22T03:06:02.209Z,0
2017-01-22T03:07:02.218Z,0
2017-01-22T03:08:02.215Z,0
2017-01-22T03:09:02.172Z,0
2017-01-22T03:10:02.182Z,0
2017-01-22T03:11:02.211Z,0
2017-01-22T03:12:02.179Z,0
2017-01-22T03:13:02.188Z,0
2017-01-22T03:14:02.202Z,0
2017-01-22T03:15:02.211Z,0
2017-01-22T03:16:02.203Z,0
2017-01-22T03:17:02.200Z,0
2017-01-22T03:18:02.198Z,0
2017-01-22T03:19:02.210Z,0
2017-01-22T03:20:02.198Z,0
2017-01-22T03:21:02.223Z,0
2017-01-22T03:22:02.215Z,0
2017-01-22T03:23:02.189Z,0
2017-01-22T03:24:02.206Z,0
2017-01-22T03:25:02.227Z,0
2017-01-22T03:26:02.193Z,0
2017-01-22T03:27:02.210Z,0
2017-01-22T03:28:02.189Z,0
2017-01-22T03:29:02.204Z,0
2017-01-22T03:30:02.229Z,0
2017-01-22T03:31:02.219Z,0
2017-01-22T03:32:02.200Z,0
2017-01-22T03:33:02.209Z,0
2017-01-22T03:34:02.201Z,0
2017-01-22T03:35:02.219Z,0
2017-01-22T03:36:02.189Z,0
2017-01-22T03:37:02.233Z,0
2017-01-22T03:38:02.206Z,0
2017-01-22T03:39:02.220Z,0
2017-01-22T03:40:02.205Z,0
2017-01-22T03:41:02.231Z,0
2017-01-22T03:42:02.253Z,0
2017-01-22T03:43:02.227Z,0
2017-01-22T03:44:02.214Z,0
2017-01-22T03:45:02.207Z,0
2017-01-22T03:46:02.228Z,0
2017-01-22T03:47:02.195Z,0
2017-01-22T03:48:02.211Z,0
2017-01-22T03:49:02.210Z,0
2017-01-22T03:50:02.209Z,0
2017-01-22T03:51:02.206Z,0
2017-01-22T03:52:02.216Z,0
2017-01-22T03:53:02.260Z,0
2017-01-22T03:54:02.230Z,0
2017-01-22T03:55:02.237Z,0
2017-01-22T03:56:02.237Z,0
2017-01-22T03:57:02.208Z,0
2017-01-22T03:58:02.238Z,0
2017-01-22T03:59:02.223Z,0
2017-01-22T04:00:02.212Z,0
2017-01-22T04:01:02.228Z,0
2017-01-22T04:02:02.216Z,0
2017-01-22T04:03:02.234Z,0
2017-01-22T04:04:02.254Z,0
2017-01-22T04:05:02.236Z,0
2017-01-22T04:06:02.238Z,0
2017-01-22T04:07:02.212Z,0
2017-01-22T04:08:02.217Z,0
2017-01-22T04:09:02.226Z,0
2017-01-22T04:10:02.240Z,0
2017-01-22T04:11:02.234Z,0
2017-01-22T04:12:02.249Z,0
2017-01-22T04:13:02.243Z,0
2017-01-22T04:14:02.217Z,0
2017-01-22T04:15:02.238Z,0
2017-01-22T04:16:02.251Z,0
2017-01-22T04:17:02.236Z,0
2017-01-22T04:18:02.254Z,0
2017-01-22T04:19:02.239Z,0
2017-01-22T04:20:02.225Z,0
2017-01-22T04:21:02.285Z,0
2017-01-22T04:22:02.227Z,0
2017-01-22T04:23:02.229Z,0
2017-01-22T04:24:02.243Z,0
2017-01-22T04:25:02.254Z,0
2017-01-22T04:26:02.254Z,0
2017-01-22T04:27:02.244Z,0
2017-01-22T04:28:02.234Z,0
2017-01-22T04:29:02.279Z,0
2017-01-22T04:30:02.246Z,0
2017-01-22T04:31:02.234Z,0
2017-01-22T04:32:02.233Z,0
2017-01-22T04:33:02.241Z,0
2017-01-22T04:34:02.246Z,0
2017-01-22T04:35:02.237Z,0
2017-01-22T04:36:02.261Z,0
2017-01-22T04:37:02.260Z,0
2017-01-22T04:38:02.219Z,0
2017-01-22T04:39:02.240Z,0
2017-01-22T04:40:02.242Z,0
2017-01-22T04:41:02.254Z,0
2017-01-22T04:42:02.217Z,0
2017-01-22T04:43:02.216Z,0
2017-01-22T04:44:02.221Z,0
2017-01-22T04:45:02.252Z,0
2017-01-22T04:46:02.264Z,0
2017-01-22T04:47:02.240Z,0
2017-01-22T04:48:02.236Z,0
2017-01-22T04:49:02.255Z,0
2017-01-22T04:50:02.245Z,0
2017-01-22T04:51:02.245Z,0
2017-01-22T04:52:02.238Z,0
2017-01-22T04:53:02.246Z,0
2017-01-22T04:54:02.255Z,0
2017-01-22T04:55:02.262Z,0
2017-01-22T04:56:02.255Z,0
2017-01-22T04:57:02.274Z,0
2017-01-22T04:58:02.262Z,0
2017-01-22T04:59:02.239Z,0
2017-01-22T05:00:02.244Z,0
2017-01-22T05:01:02.261Z,0
2017-01-22T05:02:02.258Z,0
2017-01-22T05:03:02.296Z,0
2017-01-22T05:04:02.256Z,0
2017-01-22T05:05:02.241Z,0
2017-01-22T05:06:02.271Z,0
2017-01-22T05:07:02.258Z,0
2017-01-22T05:08:02.253Z,0
2017-01-22T05:09:02.253Z,0
2017-01-22T05:10:02.245Z,0
2017-01-22T05:11:02.283Z,0
2017-01-22T05:12:02.287Z,0
2017-01-22T05:13:02.276Z,0
2017-01-22T05:14:02.280Z,0
2017-01-22T05:15:02.265Z,0
2017-01-22T05:16:02.258Z,0
2017-01-22T05:17:02.256Z,0
2017-01-22T05:18:02.288Z,0
2017-01-22T05:19:02.287Z,0
2017-01-22T05:20:02.263Z,0
2017-01-22T05:21:02.282Z,0
2017-01-22T05:22:02.263Z,0
2017-01-22T05:23:02.291Z,0
2017-01-22T05:24:02.255Z,0
2017-01-22T05:25:02.270Z,0
2017-01-22T05:26:02.264Z,0
2017-01-22T05:27:02.271Z,0
2017-01-22T05:28:02.277Z,0
2017-01-22T05:29:02.233Z,0
2017-01-22T05:30:02.269Z,0
2017-01-22T05:31:02.268Z,0
2017-01-22T05:32:02.270Z,0
2017-01-22T05:33:02.254Z,0
2017-01-22T05:34:02.305Z,0
2017-01-22T05:35:02.268Z,0
2017-01-22T05:36:02.267Z,0
2017-01-22T05:37:02.308Z,0
2017-01-22T05:38:02.262Z,0
2017-01-22T05:39:02.270Z,0
2017-01-22T05:40:02.281Z,0
2017-01-22T05:41:02.262Z,0
2017-01-22T05:42:02.265Z,0
2017-01-22T05:43:02.293Z,0
2017-01-22T05:44:02.260Z,0
2017-01-22T05:45:02.280Z,0
2017-01-22T05:46:02.275Z,0
2017-01-22T05:47:02.320Z,0
2017-01-22T05:48:02.279Z,0
2017-01-22T05:49:02.280Z,0
2017-01-22T05:50:02.288Z,0
2017-01-22T05:51:02.332Z,0
2017-01-22T05:52:02.291Z,0
2017-01-22T05:53:02.307Z,0
2017-01-22T05:54:02.286Z,0
2017-01-22T05:55:02.276Z,0
2017-01-22T05:56:02.283Z,0
2017-01-22T05:57:02.275Z,0
2017-01-22T05:58:02.278Z,0
2017-01-22T05:59:02.303Z,0
2017-01-22T06:00:02.294Z,0
2017-01-22T06:01:02.264Z,0
2017-01-22T06:02:02.294Z,0
2017-01-22T06:03:02.284Z,0
2017-01-22T06:04:02.326Z,0
2017-01-22T06:05:02.283Z,0
2017-01-22T06:06:02.287Z,0
2017-01-22T06:07:02.280Z,0
2017-01-22T06:08:02.294Z,0
2017-01-22T06:09:02.296Z,0
2017-01-22T06:10:02.298Z,0
2017-01-22T06:11:02.288Z,0
2017-01-22T06:12:02.278Z,0
2017-01-22T06:13:02.281Z,0
2017-01-22T06:14:02.305Z,0
2017-01-22T06:15:02.289Z,0
2017-01-22T06:16:02.295Z,0
2017-01-22T06:17:02.298Z,0
2017-01-22T06:18:02.310Z,0
2017-01-22T06:19:02.301Z,0
2017-01-22T06:20:02.303Z,0
2017-01-22T06:21:02.287Z,0
2017-01-22T06:22:02.285Z,0
2017-01-22T06:23:02.304Z,0
2017-01-22T06:24:02.317Z,0
2017-01-22T06:25:02.308Z,0
2017-01-22T06:26:02.303Z,0
2017-01-22T06:27:02.294Z,0
2017-01-22T06:28:02.300Z,0
2017-01-22T06:29:02.292Z,0
2017-01-22T06:30:02.306Z,0
2017-01-22T06:31:02.316Z,0
2017-01-22T06:32:02.279Z,0
2017-01-22T06:33:02.313Z,0
2017-01-22T06:34:02.306Z,0
2017-01-22T06:35:02.318Z,0
2017-01-22T06:36:02.311Z,0
2017-01-22T06:37:02.295Z,0
2017-01-22T06:38:02.310Z,0
2017-01-22T06:39:02.326Z,0
2017-01-22T06:40:02.331Z,0
2017-01-22T06:41:02.323Z,0
2017-01-22T06:42:02.297Z,0
2017-01-22T06:43:02.302Z,0
2017-01-22T06:44:02.321Z,0
2017-01-22T06:45:02.313Z,0
2017-01-22T06:46:02.337Z,0
2017-01-22T06:47:02.324Z,0
2017-01-22T06:48:02.304Z,0
2017-01-22T06:49:02.301Z,0
2017-01-22T06:50:02.296Z,0
2017-01-22T06:51:02.300Z,0
2017-01-22T06:52:02.321Z,0
2017-01-22T06:53:02.307Z,0
2017-01-22T06:54:02.319Z,0
2017-01-22T06:55:02.325Z,0
2017-01-22T06:56:02.313Z,0
2017-01-22T06:57:02.348Z,0
2017-01-22T06:58:02.309Z,0
2017-01-22T06:59:02.316Z,0
2017-01-22T07:00:02.350Z,0
2017-01-22T07:01:02.313Z,0
2017-01-22T07:02:02.324Z,0
2017-01-22T07:03:02.337Z,0
2017-01-22T07:04:02.335Z,0
2017-01-22T07:05:02.322Z,0
2017-01-22T07:06:02.330Z,0
2017-01-22T07:07:02.341Z,0
2017-01-22T07:08:02.333Z,0
2017-01-22T07:09:02.318Z,0
2017-01-22T07:10:02.324Z,0
2017-01-22T07:11:02.331Z,0
2017-01-22T07:12:02.348Z,0
2017-01-22T07:13:02.317Z,0
2017-01-22T07:14:02.311Z,0
2017-01-22T07:15:02.303Z,0
2017-01-22T07:16:02.325Z,0
2017-01-22T07:17:02.370Z,0
2017-01-22T07:18:02.316Z,5
2017-01-22T07:19:02.343Z,5
2017-01-22T07:20:02.349Z,5
2017-01-22T07:21:02.326Z,5
2017-01-22T07:22:02.319Z,5
2017-01-22T07:23:02.306Z,5
2017-01-22T07:24:02.327Z,5
2017-01-22T07:25:02.354Z,5
2017-01-22T07:26:02.333Z,5
2017-01-22T07:27:02.319Z,10
2017-01-22T07:28:02.316Z,10
2017-01-22T07:29:02.328Z,10
2017-01-22T07:30:02.319Z,10
2017-01-22T07:31:02.342Z,10
2017-01-22T07:32:02.370Z,10
2017-01-22T07:33:02.299Z,10
2017-01-22T07:34:02.324Z,15
2017-01-22T07:35:02.353Z,15
2017-01-22T07:36:02.335Z,15
2017-01-22T07:37:02.337Z,15
2017-01-22T07:38:02.352Z,15
2017-01-22T07:39:02.308Z,15
2017-01-22T07:40:02.343Z,20
2017-01-22T07:41:02.339Z,20
2017-01-22T07:42:02.327Z,20
2017-01-22T07:43:02.328Z,20
2017-01-22T07:44:02.363Z,20
2017-01-22T07:45:02.340Z,20
2017-01-22T07:46:02.337Z,20
2017-01-22T07:47:02.372Z,25
2017-01-22T07:48:02.377Z,25
2017-01-22T07:49:02.341Z,25
2017-01-22T07:50:02.338Z,25
2017-01-22T07:51:02.375Z,25
2017-01-22T07:52:02.347Z,30
2017-01-22T07:53:02.339Z,30
2017-01-22T07:54:02.366Z,30
2017-01-22T07:55:02.364Z,30
2017-01-22T07:56:02.357Z,30
2017-01-22T07:57:02.359Z,30
2017-01-22T07:58:02.369Z,35
2017-01-22T07:59:02.349Z,35
2017-01-22T08:00:02.365Z,35
2017-01-22T08:01:02.392Z,35
2017-01-22T08:02:02.383Z,35
2017-01-22T08:03:02.366Z,35
2017-01-22T08:04:02.351Z,35
2017-01-22T08:05:02.340Z,40
2017-01-22T08:06:02.375Z,40
2017-01-22T08:07:02.345Z,40
2017-01-22T08:08:02.348Z,40
2017-01-22T08:09:02.405Z,40
2017-01-22T08:10:02.362Z,40
2017-01-22T08:11:02.383Z,45
2017-01-22T08:12:02.439Z,45
2017-01-22T08:13:02.366Z,45
2017-01-22T08:14:02.347Z,45
2017-01-22T08:15:02.368Z,45
2017-01-22T08:16:02.428Z,45
2017-01-22T08:17:02.345Z,50
2017-01-22T08:18:02.380Z,50
2017-01-22T08:19:02.369Z,50
2017-01-22T08:20:02.379Z,50
2017-01-22T08:21:02.341Z,50
2017-01-22T08:22:02.372Z,50
2017-01-22T08:23:02.426Z,50
2017-01-22T08:24:02.472Z,50
2017-01-22T08:25:02.413Z,55
2017-01-22T08:26:02.346Z,55
2017-01-22T08:27:02.357Z,55
2017-01-22T08:28:02.344Z,55
2017-01-22T08:29:02.351Z,55
2017-01-22T08:30:02.345Z,55
2017-01-22T08:31:02.366Z,55
2017-01-22T08:32:02.354Z,60
2017-01-22T08:33:02.359Z,60
2017-01-22T08:34:02.347Z,60
2017-01-22T08:35:02.399Z,60
2017-01-22T08:36:02.390Z,60
2017-01-22T08:37:02.358Z,60
2017-01-22T08:38:02.360Z,60
2017-01-22T08:39:02.395Z,60
2017-01-22T08:40:08.731Z,60
2017-01-22T08:41:02.904Z,60
2017-01-22T08:42:02.374Z,65
2017-01-22T08:43:04.475Z,65
2017-01-22T08:44:02.388Z,65
2017-01-22T08:45:02.423Z,65
2017-01-22T08:46:02.561Z,65
2017-01-22T08:47:02.364Z,65
2017-01-22T08:48:02.393Z,65
2017-01-22T08:49:04.279Z,65
2017-01-22T08:50:02.408Z,65
2017-01-22T08:51:03.073Z,65
2017-01-22T08:52:02.382Z,70
2017-01-22T08:53:03.443Z,70
2017-01-22T08:54:02.463Z,70
2017-01-22T08:55:02.371Z,70
2017-01-22T08:56:02.365Z,70
2017-01-22T08:57:02.351Z,70
2017-01-22T08:58:02.359Z,70
2017-01-22T08:59:02.383Z,70
2017-01-22T09:00:02.384Z,70
2017-01-22T09:01:02.412Z,70
2017-01-22T09:02:02.420Z,70
2017-01-22T09:03:02.395Z,75
2017-01-22T09:04:02.406Z,75
2017-01-22T09:05:02.662Z,75
2017-01-22T09:06:02.477Z,75
2017-01-22T09:07:02.395Z,75
2017-01-22T09:08:02.377Z,75
2017-01-22T09:09:02.544Z,75
2017-01-22T09:10:02.392Z,75
2017-01-22T09:11:02.408Z,75
2017-01-22T09:12:02.412Z,75
2017-01-22T09:13:02.384Z,75
2017-01-22T09:14:02.386Z,75
2017-01-22T09:15:02.400Z,75
2017-01-22T09:16:02.426Z,75
2017-01-22T09:17:02.403Z,80
2017-01-22T09:18:02.424Z,80
2017-01-22T09:19:02.436Z,80
2017-01-22T09:20:02.457Z,80
2017-01-22T09:21:02.605Z,80
2017-01-22T09:22:02.413Z,80
2017-01-22T09:23:02.461Z,80
2017-01-22T09:24:02.687Z,80
2017-01-22T09:25:02.474Z,80
2017-01-22T09:26:02.430Z,80
2017-01-22T09:27:02.463Z,80
2017-01-22T09:28:02.397Z,80
2017-01-22T09:29:02.423Z,80
2017-01-22T09:30:02.958Z,80
2017-01-22T09:31:02.418Z,80
2017-01-22T09:32:02.953Z,80
2017-01-22T09:33:02.711Z,85
2017-01-22T09:34:02.409Z,85
2017-01-22T09:35:02.422Z,85
2017-01-22T09:36:02.801Z,85
2017-01-22T09:37:02.405Z,85
2017-01-22T09:38:02.430Z,85
2017-01-22T09:39:02.458Z,85
2017-01-22T09:40:02.512Z,85
2017-01-22T09:41:02.480Z,85
2017-01-22T09:42:02.413Z,85
2017-01-22T09:43:02.397Z,85
2017-01-22T09:44:02.407Z,85
2017-01-22T09:45:02.471Z,85
2017-01-22T09:46:02.407Z,85
2017-01-22T09:47:02.414Z,90
2017-01-22T09:48:02.436Z,90
2017-01-22T09:49:02.448Z,85
2017-01-22T09:50:02.389Z,90
2017-01-22T09:51:02.434Z,90
2017-01-22T09:52:02.434Z,90
2017-01-22T09:53:02.436Z,90
2017-01-22T09:54:02.414Z,90
2017-01-22T09:55:02.425Z,90
2017-01-22T09:56:02.440Z,90
2017-01-22T09:57:02.391Z,90
2017-01-22T09:58:02.430Z,90
2017-01-22T09:59:02.427Z,90
2017-01-22T10:00:02.417Z,90
2017-01-22T10:01:02.441Z,90
2017-01-22T10:02:02.431Z,90
2017-01-22T10:03:02.430Z,90
2017-01-22T10:04:02.449Z,90
2017-01-22T10:05:02.434Z,90
2017-01-22T10:06:02.643Z,90
2017-01-22T10:07:02.427Z,95
2017-01-22T10:08:02.426Z,95
2017-01-22T10:09:02.473Z,95
2017-01-22T10:10:02.440Z,95
2017-01-22T10:11:02.477Z,95
2017-01-22T10:12:02.406Z,95
2017-01-22T10:13:02.455Z,95
2017-01-22T10:14:02.424Z,95
2017-01-22T10:15:02.449Z,95
2017-01-22T10:16:02.428Z,95
2017-01-22T10:17:02.417Z,95
2017-01-22T10:18:02.511Z,95
2017-01-22T10:19:02.422Z,95
2017-01-22T10:20:02.428Z,95
2017-01-22T10:21:02.430Z,100
2017-01-22T10:22:02.480Z,100
2017-01-22T10:23:02.463Z,100
2017-01-22T10:24:02.440Z,100
2017-01-22T10:25:02.452Z,100
2017-01-22T10:26:02.501Z,100
2017-01-22T10:27:02.431Z,100
2017-01-22T10:28:02.419Z,100
2017-01-22T10:29:02.459Z,100
2017-01-22T10:30:02.442Z,100
2017-01-22T10:31:02.456Z,100
2017-01-22T10:32:02.451Z,100
2017-01-22T10:33:02.426Z,105
2017-01-22T10:34:02.455Z,105
2017-01-22T10:35:02.475Z,105
2017-01-22T10:36:02.446Z,105
2017-01-22T10:37:02.446Z,105
2017-01-22T10:38:02.477Z,105
2017-01-22T10:39:02.464Z,105
2017-01-22T10:40:02.447Z,105
2017-01-22T10:41:02.454Z,105
2017-01-22T10:42:02.455Z,105
2017-01-22T10:43:02.430Z,105
2017-01-22T10:44:02.469Z,105
2017-01-22T10:45:02.422Z,105
2017-01-22T10:46:02.438Z,105
2017-01-22T10:47:02.441Z,105
2017-01-22T10:48:02.442Z,105
2017-01-22T10:49:02.430Z,105
2017-01-22T10:50:02.454Z,105
2017-01-22T10:51:02.455Z,105
2017-01-22T10:52:02.431Z,105
2017-01-22T10:53:02.473Z,105
2017-01-22T10:54:02.528Z,105
2017-01-22T10:55:02.465Z,105
2017-01-22T10:56:02.500Z,105
2017-01-22T10:57:02.486Z,105
2017-01-22T10:58:02.452Z,105
2017-01-22T10:59:02.452Z,105
2017-01-22T11:00:02.485Z,105
2017-01-22T11:01:02.449Z,105
2017-01-22T11:02:02.476Z,105
2017-01-22T11:03:02.464Z,105
2017-01-22T11:04:02.441Z,105
2017-01-22T11:05:02.472Z,105
2017-01-22T11:06:02.469Z,105
2017-01-22T11:07:02.461Z,105
2017-01-22T11:08:02.461Z,105
2017-01-22T11:09:02.488Z,105
2017-01-22T11:10:02.452Z,105
2017-01-22T11:11:02.468Z,105
2017-01-22T11:12:02.484Z,105
2017-01-22T11:13:02.503Z,105
2017-01-22T11:14:02.488Z,105
2017-01-22T11:15:02.510Z,105
2017-01-22T11:16:02.453Z,105
2017-01-22T11:17:02.478Z,105
2017-01-22T11:18:02.465Z,105
2017-01-22T11:19:02.534Z,105
2017-01-22T11:20:02.489Z,105
2017-01-22T11:21:02.454Z,105
2017-01-22T11:22:02.473Z,105
2017-01-22T11:23:02.472Z,105
2017-01-22T11:24:02.491Z,105
2017-01-22T11:25:02.525Z,105
2017-01-22T11:26:02.997Z,105
2017-01-22T11:27:02.482Z,105
2017-01-22T11:28:02.488Z,105
2017-01-22T11:29:02.486Z,105
2017-01-22T11:30:02.507Z,105
2017-01-22T11:31:02.493Z,105
2017-01-22T11:32:02.512Z,105
2017-01-22T11:33:02.549Z,105
2017-01-22T11:34:02.459Z,105
2017-01-22T11:35:02.473Z,105
2017-01-22T11:36:02.466Z,105
2017-01-22T11:37:02.488Z,105
2017-01-22T11:38:02.505Z,105
2017-01-22T11:39:02.493Z,105
2017-01-22T11:40:02.473Z,105
2017-01-22T11:41:02.493Z,105
2017-01-22T11:42:02.458Z,105
2017-01-22T11:43:02.480Z,105
2017-01-22T11:44:03.433Z,105
2017-01-22T11:45:02.496Z,105
2017-01-22T11:46:03.446Z,105
2017-01-22T11:47:02.511Z,105
2017-01-22T11:48:02.873Z,105
2017-01-22T11:49:02.483Z,105
2017-01-22T11:50:02.471Z,105
2017-01-22T11:51:02.489Z,105
2017-01-22T11:52:02.489Z,105
2017-01-22T11:53:02.547Z,105
2017-01-22T11:54:02.467Z,105
2017-01-22T11:55:02.524Z,105
2017-01-22T11:56:02.485Z,105
2017-01-22T11:57:02.511Z,105
2017-01-22T11:58:02.493Z,105
2017-01-22T11:59:02.477Z,105
2017-01-22T12:00:02.473Z,105
2017-01-22T12:01:02.523Z,105
2017-01-22T12:02:02.529Z,105
2017-01-22T12:03:02.498Z,105
2017-01-22T12:04:02.499Z,105
2017-01-22T12:05:02.501Z,105
2017-01-22T12:06:02.532Z,105
2017-01-22T12:07:02.515Z,105
2017-01-22T12:08:02.543Z,105
2017-01-22T12:09:02.537Z,105
2017-01-22T12:10:02.532Z,105
2017-01-22T12:11:02.496Z,105
2017-01-22T12:12:02.509Z,105
2017-01-22T12:13:02.537Z,105
2017-01-22T12:14:02.514Z,105
2017-01-22T12:15:02.506Z,105
2017-01-22T12:16:02.516Z,105
2017-01-22T12:17:02.543Z,105
2017-01-22T12:18:02.480Z,105
2017-01-22T12:19:02.536Z,105
2017-01-22T12:20:02.540Z,105
2017-01-22T12:21:02.500Z,105
2017-01-22T12:22:02.510Z,105
2017-01-22T12:23:02.529Z,105
2017-01-22T12:24:02.522Z,105
2017-01-22T12:25:02.527Z,105
2017-01-22T12:26:02.515Z,105
2017-01-22T12:27:02.524Z,105
2017-01-22T12:28:02.521Z,105
2017-01-22T12:29:02.535Z,105
2017-01-22T12:30:02.532Z,105
2017-01-22T12:31:02.490Z,105
2017-01-22T12:32:02.488Z,105
2017-01-22T12:33:02.515Z,105
2017-01-22T12:34:02.525Z,105
2017-01-22T12:35:02.514Z,105
2017-01-22T12:36:02.541Z,105
2017-01-22T12:37:02.544Z,105
2017-01-22T12:38:03.522Z,105
2017-01-22T12:39:02.533Z,105
2017-01-22T12:40:02.526Z,105
2017-01-22T12:41:02.535Z,105
2017-01-22T12:42:02.550Z,105
2017-01-22T12:43:02.537Z,105
2017-01-22T12:44:02.556Z,105
2017-01-22T12:45:02.538Z,105
2017-01-22T12:46:02.546Z,105
2017-01-22T12:47:02.542Z,105
2017-01-22T12:48:02.566Z,105
2017-01-22T12:49:02.527Z,105
2017-01-22T12:50:02.563Z,105
2017-01-22T12:51:02.534Z,105
2017-01-22T12:52:02.535Z,105
2017-01-22T12:53:02.535Z,105
2017-01-22T12:54:02.822Z,100
2017-01-22T12:55:02.545Z,100
2017-01-22T12:56:02.541Z,100
2017-01-22T12:57:02.541Z,100
2017-01-22T12:58:02.551Z,100
2017-01-22T12:59:02.522Z,100
2017-01-22T13:00:02.542Z,100
2017-01-22T13:01:02.588Z,100
2017-01-22T13:02:02.676Z,100
2017-01-22T13:03:03.150Z,100
2017-01-22T13:04:02.554Z,100
2017-01-22T13:05:02.525Z,100
2017-01-22T13:06:02.554Z,100
2017-01-22T13:07:02.564Z,100
2017-01-22T13:08:03.433Z,100
2017-01-22T13:09:02.565Z,100
2017-01-22T13:10:02.778Z,100
2017-01-22T13:11:03.548Z,100
2017-01-22T13:12:03.014Z,100
2017-01-22T13:13:02.567Z,100
2017-01-22T13:14:02.557Z,100
2017-01-22T13:15:02.554Z,100
2017-01-22T13:16:02.555Z,100
2017-01-22T13:17:02.588Z,100
2017-01-22T13:18:02.590Z,100
2017-01-22T13:19:02.566Z,100
2017-01-22T13:20:02.572Z,100
2017-01-22T13:21:02.562Z,100
2017-01-22T13:22:02.544Z,100
2017-01-22T13:23:02.547Z,100
2017-01-22T13:24:02.526Z,100
2017-01-22T13:25:02.594Z,95
2017-01-22T13:26:02.567Z,95
2017-01-22T13:27:02.562Z,95
2017-01-22T13:28:02.555Z,95
2017-01-22T13:29:02.545Z,95
2017-01-22T13:30:02.614Z,95
2017-01-22T13:31:02.554Z,95
2017-01-22T13:32:02.561Z,95
2017-01-22T13:33:02.566Z,95
2017-01-22T13:34:02.598Z,95
2017-01-22T13:35:02.568Z,95
2017-01-22T13:36:02.611Z,95
2017-01-22T13:37:02.587Z,95
2017-01-22T13:38:02.548Z,95
2017-01-22T13:39:02.573Z,95
2017-01-22T13:40:02.540Z,95
2017-01-22T13:41:02.564Z,95
2017-01-22T13:42:02.632Z,95
2017-01-22T13:43:02.595Z,95
2017-01-22T13:44:02.569Z,90
2017-01-22T13:45:05.445Z,95
2017-01-22T13:46:02.639Z,95
2017-01-22T13:47:02.581Z,95
2017-01-22T13:48:05.592Z,95
2017-01-22T13:49:02.575Z,95
2017-01-22T13:50:02.591Z,95
2017-01-22T13:51:02.585Z,95
2017-01-22T13:52:02.579Z,90
2017-01-22T13:53:03.811Z,90
2017-01-22T13:54:02.618Z,95
2017-01-22T13:55:02.586Z,95
2017-01-22T13:56:02.590Z,90
2017-01-22T13:57:03.314Z,90
2017-01-22T13:58:02.587Z,90
2017-01-22T13:59:02.597Z,95
2017-01-22T14:00:02.583Z,90
2017-01-22T14:01:02.595Z,90
2017-01-22T14:02:02.601Z,90
2017-01-22T14:03:02.567Z,90
2017-01-22T14:04:02.587Z,90
2017-01-22T14:05:02.606Z,90
2017-01-22T14:06:02.612Z,90
2017-01-22T14:07:03.241Z,90
2017-01-22T14:08:02.832Z,90
2017-01-22T14:09:02.601Z,90
2017-01-22T14:10:02.579Z,90
2017-01-22T14:11:02.587Z,90
2017-01-22T14:12:02.573Z,90
2017-01-22T14:13:02.851Z,85
2017-01-22T14:14:02.623Z,85
2017-01-22T14:15:02.786Z,85
2017-01-22T14:16:02.602Z,85
2017-01-22T14:17:02.817Z,85
2017-01-22T14:18:02.596Z,85
2017-01-22T14:19:03.789Z,85
2017-01-22T14:20:02.589Z,85
2017-01-22T14:21:02.783Z,85
2017-01-22T14:22:02.587Z,85
2017-01-22T14:23:02.605Z,85
2017-01-22T14:24:02.610Z,85